sensor_id;sensor_type;location;lat;lon;timestamp;P1;durP1;ratioP1;P2;durP2;ratioP2
18170;SDS011;9210;48.358;10.902;2022-08-30T00:02:30;20.25;;;12.13;;
18170;SDS011;9210;48.358;10.902;2022-08-30T00:05:00;16.17;;;12.00;;
18170;SDS011;9210;48.358;10.902;2022-08-30T00:07:28;21.63;;;12.35;;
18170;SDS011;9210;48.358;10.902;2022-08-30T00:09:57;19.38;;;12.38;;
18170;SDS011;9210;48.358;10.902;2022-08-30T00:12:26;18.67;;;11.10;;
18170;SDS011;9210;48.358;10.902;2022-08-30T00:14:54;21.73;;;12.80;;
18170;SDS011;9210;48.358;10.902;2022-08-30T00:17:23;19.23;;;12.70;;
18170;SDS011;9210;48.358;10.902;2022-08-30T00:19:53;25.60;;;12.57;;
18170;SDS011;9210;48.358;10.902;2022-08-30T00:22:22;24.00;;;12.02;;
18170;SDS011;9210;48.358;10.902;2022-08-30T00:24:51;22.05;;;12.40;;
18170;SDS011;9210;48.358;10.902;2022-08-30T00:27:20;24.47;;;11.93;;
18170;SDS011;9210;48.358;10.902;2022-08-30T00:29:48;20.50;;;10.83;;
18170;SDS011;9210;48.358;10.902;2022-08-30T00:32:17;21.33;;;10.80;;
18170;SDS011;9210;48.358;10.902;2022-08-30T00:34:46;22.20;;;11.20;;
18170;SDS011;9210;48.358;10.902;2022-08-30T00:37:15;18.67;;;11.33;;
18170;SDS011;9210;48.358;10.902;2022-08-30T00:39:45;20.60;;;11.80;;
18170;SDS011;9210;48.358;10.902;2022-08-30T00:42:15;17.50;;;11.03;;
18170;SDS011;9210;48.358;10.902;2022-08-30T00:44:43;15.63;;;9.70;;
18170;SDS011;9210;48.358;10.902;2022-08-30T00:47:12;16.63;;;10.77;;
18170;SDS011;9210;48.358;10.902;2022-08-30T00:49:41;13.35;;;9.88;;
18170;SDS011;9210;48.358;10.902;2022-08-30T00:52:10;19.65;;;10.57;;
18170;SDS011;9210;48.358;10.902;2022-08-30T00:54:39;14.97;;;10.00;;
18170;SDS011;9210;48.358;10.902;2022-08-30T00:57:11;12.93;;;9.30;;
18170;SDS011;9210;48.358;10.902;2022-08-30T00:59:41;16.00;;;11.27;;
18170;SDS011;9210;48.358;10.902;2022-08-30T01:02:10;14.70;;;10.23;;
18170;SDS011;9210;48.358;10.902;2022-08-30T01:04:43;16.27;;;10.45;;
18170;SDS011;9210;48.358;10.902;2022-08-30T01:07:12;15.23;;;11.20;;
18170;SDS011;9210;48.358;10.902;2022-08-30T01:09:41;17.13;;;9.93;;
18170;SDS011;9210;48.358;10.902;2022-08-30T01:12:11;14.43;;;9.80;;
18170;SDS011;9210;48.358;10.902;2022-08-30T01:14:42;16.33;;;10.97;;
18170;SDS011;9210;48.358;10.902;2022-08-30T01:17:12;14.30;;;9.23;;
18170;SDS011;9210;48.358;10.902;2022-08-30T01:19:45;17.30;;;11.37;;
18170;SDS011;9210;48.358;10.902;2022-08-30T01:22:17;18.33;;;10.93;;
18170;SDS011;9210;48.358;10.902;2022-08-30T01:24:48;16.67;;;11.20;;
18170;SDS011;9210;48.358;10.902;2022-08-30T01:27:17;14.15;;;10.55;;
18170;SDS011;9210;48.358;10.902;2022-08-30T01:29:46;16.60;;;10.63;;
18170;SDS011;9210;48.358;10.902;2022-08-30T01:32:15;16.57;;;10.33;;
18170;SDS011;9210;48.358;10.902;2022-08-30T01:34:46;17.00;;;11.60;;
18170;SDS011;9210;48.358;10.902;2022-08-30T01:37:16;18.70;;;10.80;;
18170;SDS011;9210;48.358;10.902;2022-08-30T01:39:49;15.03;;;9.90;;
18170;SDS011;9210;48.358;10.902;2022-08-30T01:42:17;13.97;;;9.50;;
18170;SDS011;9210;48.358;10.902;2022-08-30T01:44:46;13.33;;;10.23;;
18170;SDS011;9210;48.358;10.902;2022-08-30T01:47:15;16.37;;;11.00;;
18170;SDS011;9210;48.358;10.902;2022-08-30T01:49:44;15.43;;;9.90;;
18170;SDS011;9210;48.358;10.902;2022-08-30T01:52:13;17.50;;;10.03;;
18170;SDS011;9210;48.358;10.902;2022-08-30T01:54:43;16.40;;;11.27;;
18170;SDS011;9210;48.358;10.902;2022-08-30T01:57:14;19.03;;;10.50;;
18170;SDS011;9210;48.358;10.902;2022-08-30T01:59:42;15.60;;;9.87;;
18170;SDS011;9210;48.358;10.902;2022-08-30T02:02:13;15.43;;;9.77;;
18170;SDS011;9210;48.358;10.902;2022-08-30T02:04:42;13.83;;;9.60;;
18170;SDS011;9210;48.358;10.902;2022-08-30T02:07:12;14.93;;;9.90;;
18170;SDS011;9210;48.358;10.902;2022-08-30T02:09:42;18.63;;;11.17;;
18170;SDS011;9210;48.358;10.902;2022-08-30T02:12:13;19.20;;;11.03;;
18170;SDS011;9210;48.358;10.902;2022-08-30T02:14:41;18.30;;;10.17;;
18170;SDS011;9210;48.358;10.902;2022-08-30T02:17:15;17.13;;;10.00;;
18170;SDS011;9210;48.358;10.902;2022-08-30T02:19:44;19.30;;;10.97;;
18170;SDS011;9210;48.358;10.902;2022-08-30T02:22:13;18.80;;;10.60;;
18170;SDS011;9210;48.358;10.902;2022-08-30T02:24:42;18.73;;;11.70;;
18170;SDS011;9210;48.358;10.902;2022-08-30T02:27:13;18.97;;;12.40;;
18170;SDS011;9210;48.358;10.902;2022-08-30T02:29:42;16.92;;;10.88;;
18170;SDS011;9210;48.358;10.902;2022-08-30T02:32:10;15.73;;;10.50;;
18170;SDS011;9210;48.358;10.902;2022-08-30T02:34:39;18.30;;;10.63;;
18170;SDS011;9210;48.358;10.902;2022-08-30T02:37:07;16.87;;;11.80;;
18170;SDS011;9210;48.358;10.902;2022-08-30T02:39:35;18.60;;;11.07;;
18170;SDS011;9210;48.358;10.902;2022-08-30T02:42:04;14.75;;;11.10;;
18170;SDS011;9210;48.358;10.902;2022-08-30T02:44:35;20.00;;;11.93;;
18170;SDS011;9210;48.358;10.902;2022-08-30T02:47:03;17.30;;;10.50;;
18170;SDS011;9210;48.358;10.902;2022-08-30T02:49:32;19.40;;;11.77;;
18170;SDS011;9210;48.358;10.902;2022-08-30T02:52:01;18.80;;;11.20;;
18170;SDS011;9210;48.358;10.902;2022-08-30T02:54:30;13.60;;;9.80;;
18170;SDS011;9210;48.358;10.902;2022-08-30T02:56:59;14.27;;;10.13;;
18170;SDS011;9210;48.358;10.902;2022-08-30T02:59:30;19.47;;;11.67;;
18170;SDS011;9210;48.358;10.902;2022-08-30T03:02:00;15.23;;;10.10;;
18170;SDS011;9210;48.358;10.902;2022-08-30T03:04:28;17.47;;;11.30;;
18170;SDS011;9210;48.358;10.902;2022-08-30T03:06:57;15.23;;;9.47;;
18170;SDS011;9210;48.358;10.902;2022-08-30T03:09:25;15.63;;;10.00;;
18170;SDS011;9210;48.358;10.902;2022-08-30T03:11:53;15.43;;;10.80;;
18170;SDS011;9210;48.358;10.902;2022-08-30T03:14:22;17.87;;;11.17;;
18170;SDS011;9210;48.358;10.902;2022-08-30T03:16:50;13.73;;;9.73;;
18170;SDS011;9210;48.358;10.902;2022-08-30T03:19:20;17.63;;;11.20;;
18170;SDS011;9210;48.358;10.902;2022-08-30T03:21:50;17.27;;;11.47;;
18170;SDS011;9210;48.358;10.902;2022-08-30T03:24:19;17.20;;;12.23;;
18170;SDS011;9210;48.358;10.902;2022-08-30T03:26:47;15.00;;;10.27;;
18170;SDS011;9210;48.358;10.902;2022-08-30T03:29:16;18.80;;;12.13;;
18170;SDS011;9210;48.358;10.902;2022-08-30T03:31:45;15.33;;;10.97;;
18170;SDS011;9210;48.358;10.902;2022-08-30T03:34:20;17.50;;;10.63;;
18170;SDS011;9210;48.358;10.902;2022-08-30T03:36:49;16.47;;;10.97;;
18170;SDS011;9210;48.358;10.902;2022-08-30T03:39:18;18.40;;;10.07;;
18170;SDS011;9210;48.358;10.902;2022-08-30T03:41:46;13.13;;;9.83;;
18170;SDS011;9210;48.358;10.902;2022-08-30T03:44:14;14.83;;;9.57;;
18170;SDS011;9210;48.358;10.902;2022-08-30T03:46:43;15.83;;;9.97;;
18170;SDS011;9210;48.358;10.902;2022-08-30T03:49:11;16.13;;;10.03;;
18170;SDS011;9210;48.358;10.902;2022-08-30T03:51:41;16.63;;;10.37;;
18170;SDS011;9210;48.358;10.902;2022-08-30T03:54:10;17.70;;;11.10;;
18170;SDS011;9210;48.358;10.902;2022-08-30T03:56:38;15.07;;;10.00;;
18170;SDS011;9210;48.358;10.902;2022-08-30T03:59:07;16.20;;;10.23;;
18170;SDS011;9210;48.358;10.902;2022-08-30T04:01:35;16.07;;;11.40;;
18170;SDS011;9210;48.358;10.902;2022-08-30T04:04:04;16.43;;;10.77;;
18170;SDS011;9210;48.358;10.902;2022-08-30T04:06:32;19.87;;;13.53;;
18170;SDS011;9210;48.358;10.902;2022-08-30T04:09:02;20.47;;;13.03;;
18170;SDS011;9210;48.358;10.902;2022-08-30T04:11:31;16.77;;;10.67;;
18170;SDS011;9210;48.358;10.902;2022-08-30T04:13:59;17.13;;;11.73;;
18170;SDS011;9210;48.358;10.902;2022-08-30T04:16:30;17.40;;;11.17;;
18170;SDS011;9210;48.358;10.902;2022-08-30T04:18:59;17.57;;;11.53;;
18170;SDS011;9210;48.358;10.902;2022-08-30T04:21:27;17.37;;;12.97;;
18170;SDS011;9210;48.358;10.902;2022-08-30T04:23:56;17.53;;;11.37;;
18170;SDS011;9210;48.358;10.902;2022-08-30T04:26:26;17.60;;;11.83;;
18170;SDS011;9210;48.358;10.902;2022-08-30T04:28:55;20.60;;;13.37;;
18170;SDS011;9210;48.358;10.902;2022-08-30T04:31:24;19.37;;;12.60;;
18170;SDS011;9210;48.358;10.902;2022-08-30T04:33:53;19.43;;;12.80;;
18170;SDS011;9210;48.358;10.902;2022-08-30T04:36:22;22.93;;;12.77;;
18170;SDS011;9210;48.358;10.902;2022-08-30T04:38:51;21.07;;;13.67;;
18170;SDS011;9210;48.358;10.902;2022-08-30T04:41:19;18.50;;;11.40;;
18170;SDS011;9210;48.358;10.902;2022-08-30T04:43:51;17.60;;;12.57;;
18170;SDS011;9210;48.358;10.902;2022-08-30T04:46:19;17.50;;;10.57;;
18170;SDS011;9210;48.358;10.902;2022-08-30T04:48:48;20.53;;;12.30;;
18170;SDS011;9210;48.358;10.902;2022-08-30T04:51:16;16.87;;;11.30;;
18170;SDS011;9210;48.358;10.902;2022-08-30T04:53:45;17.63;;;11.30;;
18170;SDS011;9210;48.358;10.902;2022-08-30T04:56:14;19.53;;;11.77;;
18170;SDS011;9210;48.358;10.902;2022-08-30T04:58:43;14.93;;;10.83;;
18170;SDS011;9210;48.358;10.902;2022-08-30T05:01:14;22.20;;;11.67;;
18170;SDS011;9210;48.358;10.902;2022-08-30T05:03:45;16.43;;;10.87;;
18170;SDS011;9210;48.358;10.902;2022-08-30T05:06:14;19.13;;;11.27;;
18170;SDS011;9210;48.358;10.902;2022-08-30T05:08:43;19.83;;;12.10;;
18170;SDS011;9210;48.358;10.902;2022-08-30T05:11:12;18.53;;;10.83;;
18170;SDS011;9210;48.358;10.902;2022-08-30T05:13:42;15.47;;;9.70;;
18170;SDS011;9210;48.358;10.902;2022-08-30T05:16:11;15.97;;;9.43;;
18170;SDS011;9210;48.358;10.902;2022-08-30T05:18:45;17.17;;;10.43;;
18170;SDS011;9210;48.358;10.902;2022-08-30T05:21:15;16.17;;;10.50;;
18170;SDS011;9210;48.358;10.902;2022-08-30T05:23:43;17.20;;;10.23;;
18170;SDS011;9210;48.358;10.902;2022-08-30T05:26:12;15.00;;;10.03;;
18170;SDS011;9210;48.358;10.902;2022-08-30T05:28:41;14.83;;;9.43;;
18170;SDS011;9210;48.358;10.902;2022-08-30T05:31:12;15.27;;;9.60;;
18170;SDS011;9210;48.358;10.902;2022-08-30T05:33:40;16.97;;;10.27;;
18170;SDS011;9210;48.358;10.902;2022-08-30T05:36:11;19.10;;;11.67;;
18170;SDS011;9210;48.358;10.902;2022-08-30T05:38:41;18.60;;;10.50;;
18170;SDS011;9210;48.358;10.902;2022-08-30T05:41:09;17.67;;;11.03;;
18170;SDS011;9210;48.358;10.902;2022-08-30T05:43:38;16.37;;;10.13;;
18170;SDS011;9210;48.358;10.902;2022-08-30T05:46:07;15.93;;;10.70;;
18170;SDS011;9210;48.358;10.902;2022-08-30T05:48:36;16.07;;;10.57;;
18170;SDS011;9210;48.358;10.902;2022-08-30T05:51:06;19.17;;;11.90;;
18170;SDS011;9210;48.358;10.902;2022-08-30T05:53:36;25.92;;;14.95;;
18170;SDS011;9210;48.358;10.902;2022-08-30T05:56:05;18.67;;;12.00;;
18170;SDS011;9210;48.358;10.902;2022-08-30T05:58:34;18.43;;;11.67;;
18170;SDS011;9210;48.358;10.902;2022-08-30T06:01:03;21.95;;;15.45;;
18170;SDS011;9210;48.358;10.902;2022-08-30T06:03:31;23.90;;;15.38;;
18170;SDS011;9210;48.358;10.902;2022-08-30T06:06:00;19.35;;;13.10;;
18170;SDS011;9210;48.358;10.902;2022-08-30T06:08:29;25.02;;;14.57;;
18170;SDS011;9210;48.358;10.902;2022-08-30T06:10:59;19.58;;;13.18;;
18170;SDS011;9210;48.358;10.902;2022-08-30T06:13:27;22.30;;;13.75;;
18170;SDS011;9210;48.358;10.902;2022-08-30T06:15:57;18.17;;;12.00;;
18170;SDS011;9210;48.358;10.902;2022-08-30T06:18:25;17.15;;;11.70;;
18170;SDS011;9210;48.358;10.902;2022-08-30T06:20:57;21.52;;;13.98;;
18170;SDS011;9210;48.358;10.902;2022-08-30T06:23:25;19.92;;;13.68;;
18170;SDS011;9210;48.358;10.902;2022-08-30T06:25:54;24.15;;;12.82;;
18170;SDS011;9210;48.358;10.902;2022-08-30T06:28:24;17.25;;;11.70;;
18170;SDS011;9210;48.358;10.902;2022-08-30T06:30:52;17.70;;;11.82;;
18170;SDS011;9210;48.358;10.902;2022-08-30T06:33:26;20.67;;;13.18;;
18170;SDS011;9210;48.358;10.902;2022-08-30T06:36:00;17.73;;;11.77;;
18170;SDS011;9210;48.358;10.902;2022-08-30T06:38:31;20.83;;;12.93;;
18170;SDS011;9210;48.358;10.902;2022-08-30T06:41:03;25.08;;;15.30;;
18170;SDS011;9210;48.358;10.902;2022-08-30T06:43:33;19.90;;;13.65;;
18170;SDS011;9210;48.358;10.902;2022-08-30T06:46:02;21.75;;;13.85;;
18170;SDS011;9210;48.358;10.902;2022-08-30T06:48:30;25.38;;;15.43;;
18170;SDS011;9210;48.358;10.902;2022-08-30T06:51:01;25.13;;;14.82;;
18170;SDS011;9210;48.358;10.902;2022-08-30T06:53:30;24.08;;;15.30;;
18170;SDS011;9210;48.358;10.902;2022-08-30T06:56:00;23.67;;;14.98;;
18170;SDS011;9210;48.358;10.902;2022-08-30T06:58:28;21.13;;;13.80;;
18170;SDS011;9210;48.358;10.902;2022-08-30T07:01:01;20.50;;;13.48;;
18170;SDS011;9210;48.358;10.902;2022-08-30T07:03:30;21.88;;;13.73;;
18170;SDS011;9210;48.358;10.902;2022-08-30T07:05:58;24.70;;;14.90;;
18170;SDS011;9210;48.358;10.902;2022-08-30T07:08:27;23.65;;;13.52;;
18170;SDS011;9210;48.358;10.902;2022-08-30T07:10:55;20.75;;;12.70;;
18170;SDS011;9210;48.358;10.902;2022-08-30T07:13:24;24.88;;;15.13;;
18170;SDS011;9210;48.358;10.902;2022-08-30T07:15:53;22.35;;;14.23;;
18170;SDS011;9210;48.358;10.902;2022-08-30T07:18:23;20.70;;;14.93;;
18170;SDS011;9210;48.358;10.902;2022-08-30T07:21:10;22.38;;;14.43;;
18170;SDS011;9210;48.358;10.902;2022-08-30T07:23:39;18.15;;;12.32;;
18170;SDS011;9210;48.358;10.902;2022-08-30T07:26:08;20.38;;;11.77;;
18170;SDS011;9210;48.358;10.902;2022-08-30T07:28:37;17.15;;;11.20;;
18170;SDS011;9210;48.358;10.902;2022-08-30T07:31:06;15.00;;;10.77;;
18170;SDS011;9210;48.358;10.902;2022-08-30T07:33:36;18.52;;;12.50;;
18170;SDS011;9210;48.358;10.902;2022-08-30T07:36:06;21.02;;;13.45;;
18170;SDS011;9210;48.358;10.902;2022-08-30T07:38:34;17.23;;;11.35;;
18170;SDS011;9210;48.358;10.902;2022-08-30T07:41:03;15.90;;;10.85;;
18170;SDS011;9210;48.358;10.902;2022-08-30T07:43:31;16.05;;;11.13;;
18170;SDS011;9210;48.358;10.902;2022-08-30T07:46:03;15.80;;;10.20;;
18170;SDS011;9210;48.358;10.902;2022-08-30T07:48:32;16.42;;;11.20;;
18170;SDS011;9210;48.358;10.902;2022-08-30T07:51:02;15.50;;;9.90;;
18170;SDS011;9210;48.358;10.902;2022-08-30T07:53:30;12.60;;;9.07;;
18170;SDS011;9210;48.358;10.902;2022-08-30T07:56:01;16.13;;;10.27;;
18170;SDS011;9210;48.358;10.902;2022-08-30T07:58:30;12.93;;;8.88;;
18170;SDS011;9210;48.358;10.902;2022-08-30T08:00:58;12.82;;;8.52;;
18170;SDS011;9210;48.358;10.902;2022-08-30T08:03:27;12.68;;;8.45;;
18170;SDS011;9210;48.358;10.902;2022-08-30T08:05:56;13.75;;;9.43;;
18170;SDS011;9210;48.358;10.902;2022-08-30T08:08:26;12.60;;;8.95;;
18170;SDS011;9210;48.358;10.902;2022-08-30T08:10:54;12.02;;;8.55;;
18170;SDS011;9210;48.358;10.902;2022-08-30T08:13:22;10.55;;;7.90;;
18170;SDS011;9210;48.358;10.902;2022-08-30T08:15:57;12.48;;;8.20;;
18170;SDS011;9210;48.358;10.902;2022-08-30T08:18:26;10.40;;;7.53;;
18170;SDS011;9210;48.358;10.902;2022-08-30T08:20:54;13.90;;;8.55;;
18170;SDS011;9210;48.358;10.902;2022-08-30T08:23:23;11.55;;;8.20;;
18170;SDS011;9210;48.358;10.902;2022-08-30T08:25:53;14.80;;;8.98;;
18170;SDS011;9210;48.358;10.902;2022-08-30T08:28:21;12.95;;;8.88;;
18170;SDS011;9210;48.358;10.902;2022-08-30T08:30:50;13.10;;;8.20;;
18170;SDS011;9210;48.358;10.902;2022-08-30T08:33:19;13.90;;;8.65;;
18170;SDS011;9210;48.358;10.902;2022-08-30T08:35:47;13.05;;;9.10;;
18170;SDS011;9210;48.358;10.902;2022-08-30T08:38:15;11.60;;;7.63;;
18170;SDS011;9210;48.358;10.902;2022-08-30T08:40:47;12.55;;;7.32;;
18170;SDS011;9210;48.358;10.902;2022-08-30T08:43:18;12.85;;;8.27;;
18170;SDS011;9210;48.358;10.902;2022-08-30T08:45:50;11.85;;;7.97;;
18170;SDS011;9210;48.358;10.902;2022-08-30T08:48:26;12.23;;;8.60;;
18170;SDS011;9210;48.358;10.902;2022-08-30T08:51:19;11.70;;;8.05;;
18170;SDS011;9210;48.358;10.902;2022-08-30T08:54:23;11.43;;;7.68;;
18170;SDS011;9210;48.358;10.902;2022-08-30T08:56:52;9.07;;;6.90;;
18170;SDS011;9210;48.358;10.902;2022-08-30T08:59:22;12.98;;;8.23;;
18170;SDS011;9210;48.358;10.902;2022-08-30T09:01:51;9.20;;;7.20;;
18170;SDS011;9210;48.358;10.902;2022-08-30T09:04:24;11.82;;;7.57;;
18170;SDS011;9210;48.358;10.902;2022-08-30T09:06:55;12.75;;;7.80;;
18170;SDS011;9210;48.358;10.902;2022-08-30T09:09:25;10.75;;;6.70;;
18170;SDS011;9210;48.358;10.902;2022-08-30T09:11:54;9.93;;;6.25;;
18170;SDS011;9210;48.358;10.902;2022-08-30T09:14:26;11.02;;;6.32;;
18170;SDS011;9210;48.358;10.902;2022-08-30T09:16:56;12.98;;;7.13;;
18170;SDS011;9210;48.358;10.902;2022-08-30T09:19:29;8.68;;;6.55;;
18170;SDS011;9210;48.358;10.902;2022-08-30T09:22:00;9.23;;;6.22;;
18170;SDS011;9210;48.358;10.902;2022-08-30T09:24:36;9.15;;;6.07;;
18170;SDS011;9210;48.358;10.902;2022-08-30T09:27:14;10.27;;;6.30;;
18170;SDS011;9210;48.358;10.902;2022-08-30T09:29:51;8.98;;;5.78;;
18170;SDS011;9210;48.358;10.902;2022-08-30T09:32:22;9.18;;;6.13;;
18170;SDS011;9210;48.358;10.902;2022-08-30T09:34:51;8.07;;;5.75;;
18170;SDS011;9210;48.358;10.902;2022-08-30T09:40:09;8.25;;;5.57;;
18170;SDS011;9210;48.358;10.902;2022-08-30T09:42:39;7.65;;;5.68;;
18170;SDS011;9210;48.358;10.902;2022-08-30T09:45:16;7.22;;;5.38;;
18170;SDS011;9210;48.358;10.902;2022-08-30T09:47:45;7.97;;;5.70;;
18170;SDS011;9210;48.358;10.902;2022-08-30T09:50:15;8.05;;;5.45;;
18170;SDS011;9210;48.358;10.902;2022-08-30T09:52:54;6.80;;;4.85;;
18170;SDS011;9210;48.358;10.902;2022-08-30T09:55:41;7.18;;;5.13;;
18170;SDS011;9210;48.358;10.902;2022-08-30T09:58:14;6.28;;;5.30;;
18170;SDS011;9210;48.358;10.902;2022-08-30T10:00:47;9.50;;;5.18;;
18170;SDS011;9210;48.358;10.902;2022-08-30T10:03:26;7.13;;;4.57;;
18170;SDS011;9210;48.358;10.902;2022-08-30T10:06:08;8.45;;;5.63;;
18170;SDS011;9210;48.358;10.902;2022-08-30T10:08:40;14.32;;;6.03;;
18170;SDS011;9210;48.358;10.902;2022-08-30T10:11:15;6.68;;;5.30;;
18170;SDS011;9210;48.358;10.902;2022-08-30T10:13:54;11.90;;;6.35;;
18170;SDS011;9210;48.358;10.902;2022-08-30T10:16:32;9.40;;;5.35;;
18170;SDS011;9210;48.358;10.902;2022-08-30T10:19:05;8.45;;;5.00;;
18170;SDS011;9210;48.358;10.902;2022-08-30T10:21:37;7.28;;;5.10;;
18170;SDS011;9210;48.358;10.902;2022-08-30T10:24:09;9.25;;;5.70;;
18170;SDS011;9210;48.358;10.902;2022-08-30T10:26:46;5.55;;;4.82;;
18170;SDS011;9210;48.358;10.902;2022-08-30T10:29:20;10.70;;;4.68;;
18170;SDS011;9210;48.358;10.902;2022-08-30T10:31:52;6.97;;;4.80;;
18170;SDS011;9210;48.358;10.902;2022-08-30T10:34:23;5.80;;;4.55;;
18170;SDS011;9210;48.358;10.902;2022-08-30T10:36:54;10.85;;;5.00;;
18170;SDS011;9210;48.358;10.902;2022-08-30T10:39:24;7.25;;;5.10;;
18170;SDS011;9210;48.358;10.902;2022-08-30T10:41:58;7.60;;;5.00;;
18170;SDS011;9210;48.358;10.902;2022-08-30T10:44:32;7.75;;;5.53;;
18170;SDS011;9210;48.358;10.902;2022-08-30T10:47:05;7.80;;;4.60;;
18170;SDS011;9210;48.358;10.902;2022-08-30T10:49:37;6.70;;;4.20;;
18170;SDS011;9210;48.358;10.902;2022-08-30T10:52:11;6.30;;;4.38;;
18170;SDS011;9210;48.358;10.902;2022-08-30T10:54:41;8.43;;;4.70;;
18170;SDS011;9210;48.358;10.902;2022-08-30T10:57:11;7.15;;;4.80;;
18170;SDS011;9210;48.358;10.902;2022-08-30T10:59:41;8.27;;;4.75;;
18170;SDS011;9210;48.358;10.902;2022-08-30T11:02:22;6.40;;;4.68;;
18170;SDS011;9210;48.358;10.902;2022-08-30T11:05:10;8.13;;;4.57;;
18170;SDS011;9210;48.358;10.902;2022-08-30T11:07:46;8.18;;;4.43;;
18170;SDS011;9210;48.358;10.902;2022-08-30T11:10:22;10.05;;;4.50;;
18170;SDS011;9210;48.358;10.902;2022-08-30T11:12:55;8.68;;;4.57;;
18170;SDS011;9210;48.358;10.902;2022-08-30T11:15:26;7.78;;;4.15;;
18170;SDS011;9210;48.358;10.902;2022-08-30T11:17:59;6.22;;;4.22;;
18170;SDS011;9210;48.358;10.902;2022-08-30T11:20:30;5.32;;;3.80;;
18170;SDS011;9210;48.358;10.902;2022-08-30T11:26:03;10.10;;;4.45;;
18170;SDS011;9210;48.358;10.902;2022-08-30T11:29:02;8.85;;;4.50;;
18170;SDS011;9210;48.358;10.902;2022-08-30T11:31:34;5.53;;;3.63;;
18170;SDS011;9210;48.358;10.902;2022-08-30T11:34:04;6.55;;;4.63;;
18170;SDS011;9210;48.358;10.902;2022-08-30T11:39:50;8.13;;;4.00;;
18170;SDS011;9210;48.358;10.902;2022-08-30T11:42:33;5.05;;;3.92;;
18170;SDS011;9210;48.358;10.902;2022-08-30T11:47:52;7.00;;;4.43;;
18170;SDS011;9210;48.358;10.902;2022-08-30T11:50:27;9.35;;;4.10;;
18170;SDS011;9210;48.358;10.902;2022-08-30T11:52:56;9.75;;;4.20;;
18170;SDS011;9210;48.358;10.902;2022-08-30T11:55:33;9.05;;;4.07;;
18170;SDS011;9210;48.358;10.902;2022-08-30T11:58:06;8.65;;;4.18;;
18170;SDS011;9210;48.358;10.902;2022-08-30T12:00:37;6.97;;;4.03;;
18170;SDS011;9210;48.358;10.902;2022-08-30T12:03:06;5.15;;;3.78;;
18170;SDS011;9210;48.358;10.902;2022-08-30T12:05:56;6.80;;;4.03;;
18170;SDS011;9210;48.358;10.902;2022-08-30T12:08:42;5.97;;;3.90;;
18170;SDS011;9210;48.358;10.902;2022-08-30T12:13:59;8.20;;;4.28;;
18170;SDS011;9210;48.358;10.902;2022-08-30T12:16:34;5.00;;;3.80;;
18170;SDS011;9210;48.358;10.902;2022-08-30T12:19:24;8.80;;;4.15;;
18170;SDS011;9210;48.358;10.902;2022-08-30T12:21:56;5.07;;;3.80;;
18170;SDS011;9210;48.358;10.902;2022-08-30T12:24:26;6.65;;;3.97;;
18170;SDS011;9210;48.358;10.902;2022-08-30T12:26:56;6.13;;;3.90;;
18170;SDS011;9210;48.358;10.902;2022-08-30T12:29:25;7.78;;;3.88;;
18170;SDS011;9210;48.358;10.902;2022-08-30T12:31:55;7.10;;;3.67;;
18170;SDS011;9210;48.358;10.902;2022-08-30T12:34:25;5.65;;;4.03;;
18170;SDS011;9210;48.358;10.902;2022-08-30T12:36:57;5.22;;;4.10;;
18170;SDS011;9210;48.358;10.902;2022-08-30T12:39:26;5.78;;;4.05;;
18170;SDS011;9210;48.358;10.902;2022-08-30T12:41:55;8.55;;;4.18;;
18170;SDS011;9210;48.358;10.902;2022-08-30T12:44:27;5.47;;;4.38;;
18170;SDS011;9210;48.358;10.902;2022-08-30T12:46:56;6.90;;;4.18;;
18170;SDS011;9210;48.358;10.902;2022-08-30T12:49:29;5.28;;;3.85;;
18170;SDS011;9210;48.358;10.902;2022-08-30T12:54:52;6.28;;;4.15;;
18170;SDS011;9210;48.358;10.902;2022-08-30T12:57:35;6.18;;;4.13;;
18170;SDS011;9210;48.358;10.902;2022-08-30T13:00:05;7.15;;;4.20;;
18170;SDS011;9210;48.358;10.902;2022-08-30T13:02:42;6.50;;;4.40;;
18170;SDS011;9210;48.358;10.902;2022-08-30T13:05:29;5.72;;;4.15;;
18170;SDS011;9210;48.358;10.902;2022-08-30T13:08:10;6.32;;;4.18;;
18170;SDS011;9210;48.358;10.902;2022-08-30T13:10:48;7.53;;;4.32;;
18170;SDS011;9210;48.358;10.902;2022-08-30T13:13:30;6.22;;;4.03;;
18170;SDS011;9210;48.358;10.902;2022-08-30T13:16:06;4.65;;;3.70;;
18170;SDS011;9210;48.358;10.902;2022-08-30T13:18:34;6.57;;;4.03;;
18170;SDS011;9210;48.358;10.902;2022-08-30T13:21:25;8.18;;;4.00;;
18170;SDS011;9210;48.358;10.902;2022-08-30T13:23:55;6.35;;;4.07;;
18170;SDS011;9210;48.358;10.902;2022-08-30T13:26:26;7.03;;;4.20;;
18170;SDS011;9210;48.358;10.902;2022-08-30T13:28:56;6.35;;;4.10;;
18170;SDS011;9210;48.358;10.902;2022-08-30T13:31:25;6.07;;;4.13;;
18170;SDS011;9210;48.358;10.902;2022-08-30T13:33:55;6.45;;;3.83;;
18170;SDS011;9210;48.358;10.902;2022-08-30T13:36:26;6.57;;;4.35;;
18170;SDS011;9210;48.358;10.902;2022-08-30T13:38:56;7.72;;;4.43;;
18170;SDS011;9210;48.358;10.902;2022-08-30T13:41:27;7.55;;;4.28;;
18170;SDS011;9210;48.358;10.902;2022-08-30T13:44:03;6.40;;;4.47;;
18170;SDS011;9210;48.358;10.902;2022-08-30T13:46:38;6.00;;;4.00;;
18170;SDS011;9210;48.358;10.902;2022-08-30T13:49:08;7.82;;;3.97;;
18170;SDS011;9210;48.358;10.902;2022-08-30T13:51:59;6.22;;;4.50;;
18170;SDS011;9210;48.358;10.902;2022-08-30T13:54:45;7.57;;;4.57;;
18170;SDS011;9210;48.358;10.902;2022-08-30T13:57:17;6.50;;;4.22;;
18170;SDS011;9210;48.358;10.902;2022-08-30T14:00:07;6.82;;;3.83;;
18170;SDS011;9210;48.358;10.902;2022-08-30T14:02:37;6.32;;;4.22;;
18170;SDS011;9210;48.358;10.902;2022-08-30T14:05:14;8.38;;;3.95;;
18170;SDS011;9210;48.358;10.902;2022-08-30T14:08:02;7.30;;;3.60;;
18170;SDS011;9210;48.358;10.902;2022-08-30T14:10:54;5.55;;;4.10;;
18170;SDS011;9210;48.358;10.902;2022-08-30T14:13:24;7.57;;;3.97;;
18170;SDS011;9210;48.358;10.902;2022-08-30T14:15:55;7.05;;;3.90;;
18170;SDS011;9210;48.358;10.902;2022-08-30T14:18:43;9.40;;;4.05;;
18170;SDS011;9210;48.358;10.902;2022-08-30T14:21:12;5.32;;;4.05;;
18170;SDS011;9210;48.358;10.902;2022-08-30T14:23:40;7.78;;;4.35;;
18170;SDS011;9210;48.358;10.902;2022-08-30T14:26:09;5.63;;;4.07;;
18170;SDS011;9210;48.358;10.902;2022-08-30T14:28:39;7.72;;;4.28;;
18170;SDS011;9210;48.358;10.902;2022-08-30T14:31:12;6.40;;;3.95;;
18170;SDS011;9210;48.358;10.902;2022-08-30T14:33:42;6.72;;;3.78;;
18170;SDS011;9210;48.358;10.902;2022-08-30T14:36:10;4.70;;;3.83;;
18170;SDS011;9210;48.358;10.902;2022-08-30T14:38:41;6.80;;;4.03;;
18170;SDS011;9210;48.358;10.902;2022-08-30T14:41:09;7.78;;;4.35;;
18170;SDS011;9210;48.358;10.902;2022-08-30T14:43:39;5.68;;;3.80;;
18170;SDS011;9210;48.358;10.902;2022-08-30T14:46:08;5.82;;;4.38;;
18170;SDS011;9210;48.358;10.902;2022-08-30T14:48:37;7.50;;;4.03;;
18170;SDS011;9210;48.358;10.902;2022-08-30T14:51:12;5.78;;;3.97;;
18170;SDS011;9210;48.358;10.902;2022-08-30T14:53:42;4.45;;;3.60;;
18170;SDS011;9210;48.358;10.902;2022-08-30T14:56:14;5.05;;;3.95;;
18170;SDS011;9210;48.358;10.902;2022-08-30T14:58:47;6.72;;;4.20;;
18170;SDS011;9210;48.358;10.902;2022-08-30T15:01:16;7.13;;;4.18;;
18170;SDS011;9210;48.358;10.902;2022-08-30T15:03:46;4.53;;;3.72;;
18170;SDS011;9210;48.358;10.902;2022-08-30T15:06:19;6.18;;;3.92;;
18170;SDS011;9210;48.358;10.902;2022-08-30T15:08:51;6.20;;;4.00;;
18170;SDS011;9210;48.358;10.902;2022-08-30T15:11:21;6.53;;;3.83;;
18170;SDS011;9210;48.358;10.902;2022-08-30T15:13:52;6.93;;;4.20;;
18170;SDS011;9210;48.358;10.902;2022-08-30T15:16:21;6.65;;;3.90;;